Ternej, Russia
Current Conditions -  °F | °C
As of 10:30 PM on Monday 26 Jan 2015 (Local Time) from UHHH Reporting Station
Moderate Snow Moderate Snow  
Wind Chill: -6°   Ceiling: 10000
Heat Index:   Visibility: 1.2mi
Dew Point:   Wind: 11mph
Humidity: 92%   Direction: 270°W
Pressure: 29.94"   Gusts: NA
Location:  45.05°N, 136.61°E
Report Text: UHHH 261230Z 27005MPS 2000 SN BR OVC100 M13/M14 Q1014 NOSIG RMKQFE754/1005 23490550
Loading
Personal Weather Stations






























Interactive Weather Map New forecast layout! Learn more

10-Day Weather Forecast

Advertisements
Track Severe Weather on mobile